This is the latest recevied weather packets stored in our database for station/object JS2WAD-13. If no packets are shown the sender has not sent any weather packets the latest 10 day(s).
| Time | Temp. | Humidity | Pressure | Rain* | Wind** | Luminosity | Snow |
|---|---|---|---|---|---|---|---|
| 1777435904 | 20° C | 50% | 905.2 hPa | 0 mm | - | 109 W/m² | - |
| 1777435604 | 20° C | 51% | 905.3 hPa | 0 mm | - | 81 W/m² | - |
| 1777435304 | 20° C | 52% | 905.2 hPa | 0 mm | - | 69 W/m² | - |
| 1777435004 | 20° C | 50% | 905.3 hPa | 0 mm | - | 74 W/m² | - |
| 1777434704 | 20° C | 54% | 905.4 hPa | 0 mm | - | 74 W/m² | - |
| 1777434404 | 20° C | 54% | 905.4 hPa | 0 mm | - | 86 W/m² | - |
| 1777434104 | 20° C | 52% | 905.4 hPa | 0 mm | - | 88 W/m² | - |
| 1777433804 | 20° C | 52% | 905.3 hPa | 0 mm | - | 86 W/m² | - |
| 1777433504 | 20° C | 53% | 905.5 hPa | 0 mm | - | 88 W/m² | - |
| 1777433204 | 20° C | 51% | 905.5 hPa | 0 mm | - | 91 W/m² | - |
| 1777432904 | 20° C | 53% | 905.5 hPa | 0 mm | - | 83 W/m² | - |
| 1777432604 | 20° C | 54% | 905.5 hPa | 0 mm | - | 113 W/m² | - |
| 1777432304 | 20° C | 53% | 905.5 hPa | 0 mm | - | 105 W/m² | - |
| 1777432004 | 20° C | 52% | 905.5 hPa | 0 mm | - | 93 W/m² | - |
| 1777431704 | 20° C | 52% | 905.5 hPa | 0 mm | - | 102 W/m² | - |
| 1777430204 | 19.44° C | 53% | 905.7 hPa | 0 mm | - | 148 W/m² | - |
| 1777429604 | 19.44° C | 53% | 905.8 hPa | 0 mm | - | 188 W/m² | - |
| 1777429304 | 19.44° C | 53% | 905.8 hPa | 0 mm | - | 163 W/m² | - |
| 1777429004 | 19.44° C | 57% | 905.7 hPa | 0 mm | - | 156 W/m² | - |
| 1777426604 | 18.89° C | 53% | 905.9 hPa | 0 mm | - | 102 W/m² | - |
| 1777425404 | 18.89° C | 52% | 905.7 hPa | 0 mm | - | 120 W/m² | - |
| 1777425104 | 18.89° C | 52% | 905.7 hPa | 0 mm | - | 107 W/m² | - |
| 1777422104 | 19.44° C | 48% | 905.6 hPa | 0 mm | - | 176 W/m² | - |
| 1777410405 | 18.33° C | 51% | 903.8 hPa | 0 mm | - | 19 W/m² | - |
| 1777410105 | 18.89° C | 51% | 903.7 hPa | 0 mm | - | 14 W/m² | - |
* Rain latest hour (hover to see other rain measurements)
** Current wind speed in m/s (hover to see current wind gust speed)